KAPN

Alpena County Regional Airport

Alpena, Michigan, USA
METAR KAPN 160506Z AUTO 00000KT 1/2SM FZFG VV001 M04/M06 A3018 RMK AO2 T10441056
Observed Flight Rules
Dec-16 @ 05:06 UTC (46 minutes ago) Instrument Flight Rules
Visibility Clouds Conditions
1/2 miles
  • Vertical visibility at 100' AGL
  • Freezing
  • Fog
Temperatures Readings
Current -4°C / 25°F
Dewpoint -6°C / 21°F
Humidity 86%
Altimeter 30.18" Hg
Pressure 1022 hPa
Elevation 210
METAR KAPN 160506Z AUTO 00000KT 1/2SM FZFG VV001 M04/M06 A3018 RMK AO2 T10441056
Observed Flight Rules
Dec-16 @ 05:06 UTC
(46 minutes ago)
LIFR
Clouds
  • Vertical visibility at 100' AGL
Conditions
  • Freezing
  • Fog
Temperature Dewpoint
-4°C / 25°F -6°C / 21°F
Humidity Altimeter Pressure
86% 30.18" Hg 1022 hPa